sensor_id;sensor_type;location;lat;lon;timestamp;P1;durP1;ratioP1;P2;durP2;ratioP2
20482;SDS011;10400;53.198;6.592;2022-10-31T00:01:17;27.05;;;14.73;;
20482;SDS011;10400;53.198;6.592;2022-10-31T00:03:48;36.08;;;15.25;;
20482;SDS011;10400;53.198;6.592;2022-10-31T00:06:14;24.42;;;13.98;;
20482;SDS011;10400;53.198;6.592;2022-10-31T00:08:43;28.25;;;14.50;;
20482;SDS011;10400;53.198;6.592;2022-10-31T00:11:12;34.25;;;15.52;;
20482;SDS011;10400;53.198;6.592;2022-10-31T00:13:37;28.52;;;15.52;;
20482;SDS011;10400;53.198;6.592;2022-10-31T00:16:03;27.92;;;15.20;;
20482;SDS011;10400;53.198;6.592;2022-10-31T00:18:29;23.73;;;15.55;;
20482;SDS011;10400;53.198;6.592;2022-10-31T00:21:01;26.80;;;15.27;;
20482;SDS011;10400;53.198;6.592;2022-10-31T00:23:28;25.70;;;15.45;;
20482;SDS011;10400;53.198;6.592;2022-10-31T00:25:53;27.85;;;16.33;;
20482;SDS011;10400;53.198;6.592;2022-10-31T00:28:24;29.65;;;16.15;;
20482;SDS011;10400;53.198;6.592;2022-10-31T00:30:50;29.63;;;17.15;;
20482;SDS011;10400;53.198;6.592;2022-10-31T00:33:15;33.15;;;16.95;;
20482;SDS011;10400;53.198;6.592;2022-10-31T00:35:41;27.25;;;16.50;;
20482;SDS011;10400;53.198;6.592;2022-10-31T00:38:06;31.77;;;16.55;;
20482;SDS011;10400;53.198;6.592;2022-10-31T00:40:32;28.20;;;16.25;;
20482;SDS011;10400;53.198;6.592;2022-10-31T00:42:58;30.80;;;17.00;;
20482;SDS011;10400;53.198;6.592;2022-10-31T00:45:23;27.02;;;17.30;;
20482;SDS011;10400;53.198;6.592;2022-10-31T00:47:49;27.33;;;16.08;;
20482;SDS011;10400;53.198;6.592;2022-10-31T00:50:15;31.52;;;17.45;;
20482;SDS011;10400;53.198;6.592;2022-10-31T00:52:40;31.83;;;17.50;;
20482;SDS011;10400;53.198;6.592;2022-10-31T00:55:06;30.13;;;16.60;;
20482;SDS011;10400;53.198;6.592;2022-10-31T00:57:32;33.97;;;16.77;;
20482;SDS011;10400;53.198;6.592;2022-10-31T00:59:57;27.88;;;16.45;;
20482;SDS011;10400;53.198;6.592;2022-10-31T01:02:23;28.10;;;16.23;;
20482;SDS011;10400;53.198;6.592;2022-10-31T01:04:49;31.48;;;16.98;;
20482;SDS011;10400;53.198;6.592;2022-10-31T01:07:14;28.65;;;15.80;;
20482;SDS011;10400;53.198;6.592;2022-10-31T01:09:40;26.25;;;15.80;;
20482;SDS011;10400;53.198;6.592;2022-10-31T01:12:06;32.85;;;15.73;;
20482;SDS011;10400;53.198;6.592;2022-10-31T01:14:32;24.70;;;16.55;;
20482;SDS011;10400;53.198;6.592;2022-10-31T01:16:58;27.88;;;15.48;;
20482;SDS011;10400;53.198;6.592;2022-10-31T01:19:23;28.15;;;16.50;;
20482;SDS011;10400;53.198;6.592;2022-10-31T01:21:49;29.42;;;16.25;;
20482;SDS011;10400;53.198;6.592;2022-10-31T01:24:14;32.03;;;16.48;;
20482;SDS011;10400;53.198;6.592;2022-10-31T01:26:40;27.08;;;15.90;;
20482;SDS011;10400;53.198;6.592;2022-10-31T01:29:06;23.05;;;14.85;;
20482;SDS011;10400;53.198;6.592;2022-10-31T01:31:37;27.80;;;15.68;;
20482;SDS011;10400;53.198;6.592;2022-10-31T01:34:03;26.65;;;15.02;;
20482;SDS011;10400;53.198;6.592;2022-10-31T01:36:31;27.02;;;15.75;;
20482;SDS011;10400;53.198;6.592;2022-10-31T01:39:03;26.10;;;15.80;;
20482;SDS011;10400;53.198;6.592;2022-10-31T01:41:33;24.52;;;15.32;;
20482;SDS011;10400;53.198;6.592;2022-10-31T01:44:01;31.17;;;15.88;;
20482;SDS011;10400;53.198;6.592;2022-10-31T01:47:01;27.30;;;15.50;;
20482;SDS011;10400;53.198;6.592;2022-10-31T01:49:39;28.17;;;15.40;;
20482;SDS011;10400;53.198;6.592;2022-10-31T01:52:27;28.35;;;15.18;;
20482;SDS011;10400;53.198;6.592;2022-10-31T01:55:03;29.67;;;15.40;;
20482;SDS011;10400;53.198;6.592;2022-10-31T01:57:35;27.65;;;15.40;;
20482;SDS011;10400;53.198;6.592;2022-10-31T02:00:06;29.42;;;16.17;;
20482;SDS011;10400;53.198;6.592;2022-10-31T02:02:34;27.38;;;15.25;;
20482;SDS011;10400;53.198;6.592;2022-10-31T02:05:02;24.52;;;15.52;;
20482;SDS011;10400;53.198;6.592;2022-10-31T02:07:33;23.58;;;15.43;;
20482;SDS011;10400;53.198;6.592;2022-10-31T02:10:13;29.30;;;15.05;;
20482;SDS011;10400;53.198;6.592;2022-10-31T02:12:38;26.40;;;15.15;;
20482;SDS011;10400;53.198;6.592;2022-10-31T02:15:07;26.45;;;15.10;;
20482;SDS011;10400;53.198;6.592;2022-10-31T02:17:33;30.70;;;16.25;;
20482;SDS011;10400;53.198;6.592;2022-10-31T02:31:20;22.85;;;15.15;;
20482;SDS011;10400;53.198;6.592;2022-10-31T02:34:06;26.88;;;14.63;;
20482;SDS011;10400;53.198;6.592;2022-10-31T02:36:56;32.20;;;15.13;;
20482;SDS011;10400;53.198;6.592;2022-10-31T02:39:29;27.80;;;15.50;;
20482;SDS011;10400;53.198;6.592;2022-10-31T02:47:38;25.90;;;15.38;;
20482;SDS011;10400;53.198;6.592;2022-10-31T02:53:03;29.10;;;16.88;;
20482;SDS011;10400;53.198;6.592;2022-10-31T02:57:56;30.48;;;16.48;;
20482;SDS011;10400;53.198;6.592;2022-10-31T03:00:38;29.73;;;16.73;;
20482;SDS011;10400;53.198;6.592;2022-10-31T03:03:37;30.10;;;15.55;;
20482;SDS011;10400;53.198;6.592;2022-10-31T03:06:32;29.65;;;16.42;;
20482;SDS011;10400;53.198;6.592;2022-10-31T03:09:11;26.55;;;15.38;;
20482;SDS011;10400;53.198;6.592;2022-10-31T03:14:41;30.73;;;15.85;;
20482;SDS011;10400;53.198;6.592;2022-10-31T03:17:24;26.27;;;15.68;;
20482;SDS011;10400;53.198;6.592;2022-10-31T03:19:56;29.38;;;16.70;;
20482;SDS011;10400;53.198;6.592;2022-10-31T03:22:27;24.80;;;14.65;;
20482;SDS011;10400;53.198;6.592;2022-10-31T03:24:56;28.58;;;16.45;;
20482;SDS011;10400;53.198;6.592;2022-10-31T03:27:25;24.02;;;15.95;;
20482;SDS011;10400;53.198;6.592;2022-10-31T03:29:54;27.65;;;16.13;;
20482;SDS011;10400;53.198;6.592;2022-10-31T03:32:23;26.60;;;15.13;;
20482;SDS011;10400;53.198;6.592;2022-10-31T03:34:59;25.85;;;15.77;;
20482;SDS011;10400;53.198;6.592;2022-10-31T03:37:29;26.08;;;14.73;;
20482;SDS011;10400;53.198;6.592;2022-10-31T03:39:58;28.65;;;16.15;;
20482;SDS011;10400;53.198;6.592;2022-10-31T03:42:25;28.05;;;14.80;;
20482;SDS011;10400;53.198;6.592;2022-10-31T03:44:53;25.38;;;14.73;;
20482;SDS011;10400;53.198;6.592;2022-10-31T03:47:24;25.42;;;15.05;;
20482;SDS011;10400;53.198;6.592;2022-10-31T03:49:50;23.30;;;14.73;;
20482;SDS011;10400;53.198;6.592;2022-10-31T03:52:51;28.20;;;15.45;;
20482;SDS011;10400;53.198;6.592;2022-10-31T04:00:24;23.33;;;14.20;;
20482;SDS011;10400;53.198;6.592;2022-10-31T04:05:20;22.38;;;13.25;;
20482;SDS011;10400;53.198;6.592;2022-10-31T04:07:47;28.33;;;14.55;;
20482;SDS011;10400;53.198;6.592;2022-10-31T04:10:16;26.92;;;14.20;;
20482;SDS011;10400;53.198;6.592;2022-10-31T04:12:44;25.05;;;14.23;;
20482;SDS011;10400;53.198;6.592;2022-10-31T04:15:16;26.90;;;14.60;;
20482;SDS011;10400;53.198;6.592;2022-10-31T04:17:42;24.88;;;13.18;;
20482;SDS011;10400;53.198;6.592;2022-10-31T04:20:14;27.08;;;15.32;;
20482;SDS011;10400;53.198;6.592;2022-10-31T04:22:41;21.50;;;14.02;;
20482;SDS011;10400;53.198;6.592;2022-10-31T04:25:06;25.40;;;14.10;;
20482;SDS011;10400;53.198;6.592;2022-10-31T04:27:32;21.63;;;13.80;;
20482;SDS011;10400;53.198;6.592;2022-10-31T04:29:58;19.95;;;13.07;;
20482;SDS011;10400;53.198;6.592;2022-10-31T04:32:24;20.38;;;13.02;;
20482;SDS011;10400;53.198;6.592;2022-10-31T04:34:50;26.55;;;14.88;;
20482;SDS011;10400;53.198;6.592;2022-10-31T04:37:16;24.27;;;13.43;;
20482;SDS011;10400;53.198;6.592;2022-10-31T04:39:41;23.33;;;14.32;;
20482;SDS011;10400;53.198;6.592;2022-10-31T04:42:07;22.88;;;13.52;;
20482;SDS011;10400;53.198;6.592;2022-10-31T04:44:32;22.42;;;14.48;;
20482;SDS011;10400;53.198;6.592;2022-10-31T04:46:58;22.45;;;13.70;;
20482;SDS011;10400;53.198;6.592;2022-10-31T04:49:24;24.15;;;13.52;;
20482;SDS011;10400;53.198;6.592;2022-10-31T04:51:49;23.25;;;14.05;;
20482;SDS011;10400;53.198;6.592;2022-10-31T04:54:15;23.95;;;14.85;;
20482;SDS011;10400;53.198;6.592;2022-10-31T04:56:40;24.35;;;15.02;;
20482;SDS011;10400;53.198;6.592;2022-10-31T04:59:06;21.95;;;14.30;;
20482;SDS011;10400;53.198;6.592;2022-10-31T05:01:31;27.00;;;14.63;;
20482;SDS011;10400;53.198;6.592;2022-10-31T05:03:57;30.13;;;15.13;;
20482;SDS011;10400;53.198;6.592;2022-10-31T05:06:23;24.35;;;14.70;;
20482;SDS011;10400;53.198;6.592;2022-10-31T05:08:48;24.38;;;14.35;;
20482;SDS011;10400;53.198;6.592;2022-10-31T05:11:14;28.23;;;15.80;;
20482;SDS011;10400;53.198;6.592;2022-10-31T05:13:40;21.65;;;15.00;;
20482;SDS011;10400;53.198;6.592;2022-10-31T05:16:05;22.27;;;13.50;;
20482;SDS011;10400;53.198;6.592;2022-10-31T05:18:31;25.33;;;15.60;;
20482;SDS011;10400;53.198;6.592;2022-10-31T05:20:57;23.30;;;14.98;;
20482;SDS011;10400;53.198;6.592;2022-10-31T05:23:22;24.75;;;14.82;;
20482;SDS011;10400;53.198;6.592;2022-10-31T05:25:48;22.17;;;15.48;;
20482;SDS011;10400;53.198;6.592;2022-10-31T05:28:13;22.75;;;15.25;;
20482;SDS011;10400;53.198;6.592;2022-10-31T05:30:39;23.60;;;15.73;;
20482;SDS011;10400;53.198;6.592;2022-10-31T05:33:05;22.05;;;15.30;;
20482;SDS011;10400;53.198;6.592;2022-10-31T05:35:31;23.13;;;15.52;;
20482;SDS011;10400;53.198;6.592;2022-10-31T05:37:57;27.67;;;16.45;;
20482;SDS011;10400;53.198;6.592;2022-10-31T05:40:24;24.55;;;15.13;;
20482;SDS011;10400;53.198;6.592;2022-10-31T05:42:51;24.50;;;15.57;;
20482;SDS011;10400;53.198;6.592;2022-10-31T05:45:18;24.27;;;16.02;;
20482;SDS011;10400;53.198;6.592;2022-10-31T05:47:54;24.30;;;16.02;;
20482;SDS011;10400;53.198;6.592;2022-10-31T05:50:22;22.92;;;15.93;;
20482;SDS011;10400;53.198;6.592;2022-10-31T05:52:53;23.35;;;15.75;;
20482;SDS011;10400;53.198;6.592;2022-10-31T05:55:20;24.20;;;16.40;;
20482;SDS011;10400;53.198;6.592;2022-10-31T05:57:46;29.30;;;16.70;;
20482;SDS011;10400;53.198;6.592;2022-10-31T06:00:12;23.05;;;15.65;;
20482;SDS011;10400;53.198;6.592;2022-10-31T06:02:37;27.05;;;17.40;;
20482;SDS011;10400;53.198;6.592;2022-10-31T06:05:03;25.25;;;15.82;;
20482;SDS011;10400;53.198;6.592;2022-10-31T06:07:33;29.13;;;17.05;;
20482;SDS011;10400;53.198;6.592;2022-10-31T06:09:59;24.33;;;15.82;;
20482;SDS011;10400;53.198;6.592;2022-10-31T06:12:25;24.10;;;15.73;;
20482;SDS011;10400;53.198;6.592;2022-10-31T06:14:51;25.17;;;16.55;;
20482;SDS011;10400;53.198;6.592;2022-10-31T06:17:16;25.63;;;16.08;;
20482;SDS011;10400;53.198;6.592;2022-10-31T06:19:42;25.30;;;15.68;;
20482;SDS011;10400;53.198;6.592;2022-10-31T06:22:08;25.20;;;16.63;;
20482;SDS011;10400;53.198;6.592;2022-10-31T06:24:36;23.95;;;16.35;;
20482;SDS011;10400;53.198;6.592;2022-10-31T06:27:01;26.33;;;17.27;;
20482;SDS011;10400;53.198;6.592;2022-10-31T06:29:27;24.05;;;17.55;;
20482;SDS011;10400;53.198;6.592;2022-10-31T06:31:52;23.52;;;16.02;;
20482;SDS011;10400;53.198;6.592;2022-10-31T06:34:18;24.35;;;16.40;;
20482;SDS011;10400;53.198;6.592;2022-10-31T06:36:45;25.02;;;17.60;;
20482;SDS011;10400;53.198;6.592;2022-10-31T06:39:11;25.90;;;17.38;;
20482;SDS011;10400;53.198;6.592;2022-10-31T06:41:37;25.30;;;15.85;;
20482;SDS011;10400;53.198;6.592;2022-10-31T06:44:04;25.83;;;16.05;;
20482;SDS011;10400;53.198;6.592;2022-10-31T06:46:31;25.02;;;16.63;;
20482;SDS011;10400;53.198;6.592;2022-10-31T06:48:57;24.13;;;15.77;;
20482;SDS011;10400;53.198;6.592;2022-10-31T06:51:22;25.63;;;15.80;;
20482;SDS011;10400;53.198;6.592;2022-10-31T06:53:48;26.95;;;16.00;;
20482;SDS011;10400;53.198;6.592;2022-10-31T06:56:14;25.13;;;16.85;;
20482;SDS011;10400;53.198;6.592;2022-10-31T06:58:39;25.92;;;15.82;;
20482;SDS011;10400;53.198;6.592;2022-10-31T07:01:05;22.77;;;15.73;;
20482;SDS011;10400;53.198;6.592;2022-10-31T07:03:31;23.92;;;16.20;;
20482;SDS011;10400;53.198;6.592;2022-10-31T07:05:56;27.60;;;18.65;;
20482;SDS011;10400;53.198;6.592;2022-10-31T07:08:22;22.27;;;15.32;;
20482;SDS011;10400;53.198;6.592;2022-10-31T07:10:53;20.92;;;15.00;;
20482;SDS011;10400;53.198;6.592;2022-10-31T07:13:20;21.42;;;14.15;;
20482;SDS011;10400;53.198;6.592;2022-10-31T07:15:50;22.10;;;14.60;;
20482;SDS011;10400;53.198;6.592;2022-10-31T07:18:23;19.10;;;12.77;;
20482;SDS011;10400;53.198;6.592;2022-10-31T07:20:49;16.80;;;12.15;;
20482;SDS011;10400;53.198;6.592;2022-10-31T07:23:16;18.23;;;12.35;;
20482;SDS011;10400;53.198;6.592;2022-10-31T07:25:41;16.13;;;11.77;;
20482;SDS011;10400;53.198;6.592;2022-10-31T07:28:07;19.55;;;12.27;;
20482;SDS011;10400;53.198;6.592;2022-10-31T07:30:33;17.10;;;11.63;;
20482;SDS011;10400;53.198;6.592;2022-10-31T07:32:59;17.48;;;12.15;;
20482;SDS011;10400;53.198;6.592;2022-10-31T07:35:26;18.85;;;12.25;;
20482;SDS011;10400;53.198;6.592;2022-10-31T07:37:53;15.05;;;10.50;;
20482;SDS011;10400;53.198;6.592;2022-10-31T07:40:19;15.82;;;11.90;;
20482;SDS011;10400;53.198;6.592;2022-10-31T07:42:46;18.20;;;11.50;;
20482;SDS011;10400;53.198;6.592;2022-10-31T07:45:15;17.75;;;10.65;;
20482;SDS011;10400;53.198;6.592;2022-10-31T07:47:46;16.88;;;11.93;;
20482;SDS011;10400;53.198;6.592;2022-10-31T07:50:16;20.83;;;12.32;;
20482;SDS011;10400;53.198;6.592;2022-10-31T07:52:46;16.35;;;11.88;;
20482;SDS011;10400;53.198;6.592;2022-10-31T07:55:12;17.73;;;11.45;;
20482;SDS011;10400;53.198;6.592;2022-10-31T07:57:38;16.70;;;12.02;;
20482;SDS011;10400;53.198;6.592;2022-10-31T08:00:08;18.20;;;12.07;;
20482;SDS011;10400;53.198;6.592;2022-10-31T08:02:35;15.75;;;11.00;;
20482;SDS011;10400;53.198;6.592;2022-10-31T08:05:01;17.92;;;10.63;;
20482;SDS011;10400;53.198;6.592;2022-10-31T08:07:29;13.52;;;10.18;;
20482;SDS011;10400;53.198;6.592;2022-10-31T08:10:00;16.08;;;10.85;;
20482;SDS011;10400;53.198;6.592;2022-10-31T08:12:26;24.67;;;9.27;;
20482;SDS011;10400;53.198;6.592;2022-10-31T08:14:51;13.55;;;9.25;;
20482;SDS011;10400;53.198;6.592;2022-10-31T08:17:17;16.63;;;10.00;;
20482;SDS011;10400;53.198;6.592;2022-10-31T08:19:42;13.90;;;10.40;;
20482;SDS011;10400;53.198;6.592;2022-10-31T08:22:08;13.88;;;10.70;;
20482;SDS011;10400;53.198;6.592;2022-10-31T08:24:34;14.00;;;10.52;;
20482;SDS011;10400;53.198;6.592;2022-10-31T08:26:59;15.77;;;10.73;;
20482;SDS011;10400;53.198;6.592;2022-10-31T08:29:25;14.10;;;10.35;;
20482;SDS011;10400;53.198;6.592;2022-10-31T08:31:50;15.93;;;11.05;;
20482;SDS011;10400;53.198;6.592;2022-10-31T08:34:16;14.35;;;9.98;;
20482;SDS011;10400;53.198;6.592;2022-10-31T08:36:41;13.40;;;10.55;;
20482;SDS011;10400;53.198;6.592;2022-10-31T08:39:09;13.05;;;10.73;;
20482;SDS011;10400;53.198;6.592;2022-10-31T08:41:35;15.10;;;11.82;;
20482;SDS011;10400;53.198;6.592;2022-10-31T08:44:01;19.65;;;11.70;;
20482;SDS011;10400;53.198;6.592;2022-10-31T08:46:26;17.23;;;11.52;;
20482;SDS011;10400;53.198;6.592;2022-10-31T08:48:52;16.23;;;11.00;;
20482;SDS011;10400;53.198;6.592;2022-10-31T08:51:18;18.02;;;11.68;;
20482;SDS011;10400;53.198;6.592;2022-10-31T08:53:43;17.80;;;11.27;;
20482;SDS011;10400;53.198;6.592;2022-10-31T08:56:09;15.80;;;11.85;;
20482;SDS011;10400;53.198;6.592;2022-10-31T08:58:34;15.35;;;11.30;;
20482;SDS011;10400;53.198;6.592;2022-10-31T09:01:00;17.25;;;11.82;;
20482;SDS011;10400;53.198;6.592;2022-10-31T09:03:27;19.83;;;12.38;;
20482;SDS011;10400;53.198;6.592;2022-10-31T09:05:54;16.95;;;13.13;;
20482;SDS011;10400;53.198;6.592;2022-10-31T09:08:22;17.35;;;12.80;;
20482;SDS011;10400;53.198;6.592;2022-10-31T09:10:48;17.92;;;12.85;;
20482;SDS011;10400;53.198;6.592;2022-10-31T09:13:14;18.42;;;12.48;;
20482;SDS011;10400;53.198;6.592;2022-10-31T09:15:42;16.42;;;12.88;;
20482;SDS011;10400;53.198;6.592;2022-10-31T09:18:09;17.17;;;11.70;;
20482;SDS011;10400;53.198;6.592;2022-10-31T09:20:36;17.17;;;11.55;;
20482;SDS011;10400;53.198;6.592;2022-10-31T09:23:07;19.27;;;12.77;;
20482;SDS011;10400;53.198;6.592;2022-10-31T09:25:35;15.43;;;11.43;;
20482;SDS011;10400;53.198;6.592;2022-10-31T09:28:01;15.32;;;11.68;;
20482;SDS011;10400;53.198;6.592;2022-10-31T09:30:28;16.50;;;12.77;;
20482;SDS011;10400;53.198;6.592;2022-10-31T09:32:55;16.77;;;12.55;;
20482;SDS011;10400;53.198;6.592;2022-10-31T09:35:22;17.65;;;12.90;;
20482;SDS011;10400;53.198;6.592;2022-10-31T09:37:53;15.45;;;12.30;;
20482;SDS011;10400;53.198;6.592;2022-10-31T09:40:29;15.85;;;12.60;;
20482;SDS011;10400;53.198;6.592;2022-10-31T09:45:45;14.32;;;11.73;;
20482;SDS011;10400;53.198;6.592;2022-10-31T09:48:37;16.50;;;12.38;;
20482;SDS011;10400;53.198;6.592;2022-10-31T09:57:10;15.10;;;11.82;;
20482;SDS011;10400;53.198;6.592;2022-10-31T09:59:40;14.48;;;11.52;;
20482;SDS011;10400;53.198;6.592;2022-10-31T10:07:28;14.20;;;11.23;;
20482;SDS011;10400;53.198;6.592;2022-10-31T10:09:55;16.02;;;10.63;;
20482;SDS011;10400;53.198;6.592;2022-10-31T10:20:40;17.33;;;10.77;;
20482;SDS011;10400;53.198;6.592;2022-10-31T10:25:58;17.00;;;10.38;;
20482;SDS011;10400;53.198;6.592;2022-10-31T10:28:31;16.02;;;10.57;;
20482;SDS011;10400;53.198;6.592;2022-10-31T10:31:11;15.98;;;10.80;;
20482;SDS011;10400;53.198;6.592;2022-10-31T10:33:48;16.33;;;10.32;;
20482;SDS011;10400;53.198;6.592;2022-10-31T10:36:38;15.55;;;10.35;;
20482;SDS011;10400;53.198;6.592;2022-10-31T10:39:18;14.38;;;10.32;;
20482;SDS011;10400;53.198;6.592;2022-10-31T10:41:48;12.07;;;10.40;;
20482;SDS011;10400;53.198;6.592;2022-10-31T10:44:36;17.52;;;10.80;;
20482;SDS011;10400;53.198;6.592;2022-10-31T10:47:23;15.40;;;10.75;;
20482;SDS011;10400;53.198;6.592;2022-10-31T10:50:07;15.70;;;10.38;;
20482;SDS011;10400;53.198;6.592;2022-10-31T10:58:14;17.08;;;11.57;;
20482;SDS011;10400;53.198;6.592;2022-10-31T11:00:41;21.23;;;12.80;;
20482;SDS011;10400;53.198;6.592;2022-10-31T11:03:07;14.25;;;11.10;;
20482;SDS011;10400;53.198;6.592;2022-10-31T11:05:53;16.90;;;12.13;;
20482;SDS011;10400;53.198;6.592;2022-10-31T11:08:25;19.42;;;11.52;;
20482;SDS011;10400;53.198;6.592;2022-10-31T11:11:23;17.30;;;11.93;;
20482;SDS011;10400;53.198;6.592;2022-10-31T11:13:46;19.42;;;11.35;;
20482;SDS011;10400;53.198;6.592;2022-10-31T11:16:15;16.88;;;11.13;;
20482;SDS011;10400;53.198;6.592;2022-10-31T11:18:53;23.52;;;10.95;;
20482;SDS011;10400;53.198;6.592;2022-10-31T11:21:27;27.73;;;11.18;;
20482;SDS011;10400;53.198;6.592;2022-10-31T11:24:11;20.83;;;11.18;;
20482;SDS011;10400;53.198;6.592;2022-10-31T11:26:50;18.95;;;9.32;;
20482;SDS011;10400;53.198;6.592;2022-10-31T11:29:23;14.70;;;9.52;;
20482;SDS011;10400;53.198;6.592;2022-10-31T11:31:51;12.90;;;8.02;;
20482;SDS011;10400;53.198;6.592;2022-10-31T11:34:29;10.88;;;6.82;;
20482;SDS011;10400;53.198;6.592;2022-10-31T11:37:13;10.48;;;6.57;;
20482;SDS011;10400;53.198;6.592;2022-10-31T11:39:43;8.85;;;5.95;;
20482;SDS011;10400;53.198;6.592;2022-10-31T11:42:17;8.63;;;5.18;;
20482;SDS011;10400;53.198;6.592;2022-10-31T11:44:49;8.48;;;4.95;;
20482;SDS011;10400;53.198;6.592;2022-10-31T11:47:17;12.00;;;6.38;;
20482;SDS011;10400;53.198;6.592;2022-10-31T11:49:49;19.45;;;7.20;;
20482;SDS011;10400;53.198;6.592;2022-10-31T11:52:25;10.40;;;6.60;;
20482;SDS011;10400;53.198;6.592;2022-10-31T11:59:52;13.23;;;6.07;;
20482;SDS011;10400;53.198;6.592;2022-10-31T12:02:21;11.77;;;6.32;;
20482;SDS011;10400;53.198;6.592;2022-10-31T12:05:30;11.88;;;6.25;;
20482;SDS011;10400;53.198;6.592;2022-10-31T12:07:43;13.57;;;6.78;;
20482;SDS011;10400;53.198;6.592;2022-10-31T12:10:09;15.27;;;7.20;;
20482;SDS011;10400;53.198;6.592;2022-10-31T12:12:57;12.30;;;6.13;;
20482;SDS011;10400;53.198;6.592;2022-10-31T12:18:05;10.52;;;6.90;;
20482;SDS011;10400;53.198;6.592;2022-10-31T12:21:10;18.10;;;7.53;;
20482;SDS011;10400;53.198;6.592;2022-10-31T12:24:13;12.70;;;6.93;;
20482;SDS011;10400;53.198;6.592;2022-10-31T12:29:37;12.10;;;6.65;;
20482;SDS011;10400;53.198;6.592;2022-10-31T12:46:00;11.35;;;6.00;;
20482;SDS011;10400;53.198;6.592;2022-10-31T12:51:06;12.40;;;5.85;;
20482;SDS011;10400;53.198;6.592;2022-10-31T12:58:53;12.15;;;4.93;;
20482;SDS011;10400;53.198;6.592;2022-10-31T13:01:27;8.75;;;4.88;;
20482;SDS011;10400;53.198;6.592;2022-10-31T13:03:58;11.90;;;5.70;;
20482;SDS011;10400;53.198;6.592;2022-10-31T13:06:41;11.25;;;5.45;;
20482;SDS011;10400;53.198;6.592;2022-10-31T13:09:33;12.40;;;5.50;;
20482;SDS011;10400;53.198;6.592;2022-10-31T13:12:11;11.98;;;4.95;;
20482;SDS011;10400;53.198;6.592;2022-10-31T13:14:54;11.15;;;4.68;;
20482;SDS011;10400;53.198;6.592;2022-10-31T13:17:39;9.25;;;4.53;;
20482;SDS011;10400;53.198;6.592;2022-10-31T13:20:20;12.45;;;4.30;;
20482;SDS011;10400;53.198;6.592;2022-10-31T13:22:48;12.18;;;4.68;;
20482;SDS011;10400;53.198;6.592;2022-10-31T13:25:19;9.48;;;4.13;;
20482;SDS011;10400;53.198;6.592;2022-10-31T13:27:57;12.38;;;4.55;;
20482;SDS011;10400;53.198;6.592;2022-10-31T13:30:26;12.93;;;5.18;;
20482;SDS011;10400;53.198;6.592;2022-10-31T13:33:11;16.70;;;4.72;;
20482;SDS011;10400;53.198;6.592;2022-10-31T13:38:33;9.63;;;4.28;;
20482;SDS011;10400;53.198;6.592;2022-10-31T13:46:34;13.23;;;4.47;;
20482;SDS011;10400;53.198;6.592;2022-10-31T13:49:20;11.60;;;4.80;;
20482;SDS011;10400;53.198;6.592;2022-10-31T13:54:44;11.98;;;4.70;;
20482;SDS011;10400;53.198;6.592;2022-10-31T13:59:56;10.43;;;4.65;;
20482;SDS011;10400;53.198;6.592;2022-10-31T14:02:34;11.25;;;4.47;;
20482;SDS011;10400;53.198;6.592;2022-10-31T14:05:05;11.32;;;4.57;;
20482;SDS011;10400;53.198;6.592;2022-10-31T14:07:44;13.63;;;4.70;;
20482;SDS011;10400;53.198;6.592;2022-10-31T14:16:20;14.52;;;4.85;;
20482;SDS011;10400;53.198;6.592;2022-10-31T14:18:56;14.73;;;4.97;;
20482;SDS011;10400;53.198;6.592;2022-10-31T14:21:27;10.02;;;4.95;;
20482;SDS011;10400;53.198;6.592;2022-10-31T14:23:55;10.70;;;5.18;;
20482;SDS011;10400;53.198;6.592;2022-10-31T14:31:44;17.92;;;5.72;;
20482;SDS011;10400;53.198;6.592;2022-10-31T14:34:30;16.33;;;5.13;;
20482;SDS011;10400;53.198;6.592;2022-10-31T14:48:40;11.45;;;5.32;;
20482;SDS011;10400;53.198;6.592;2022-10-31T14:51:18;11.95;;;5.45;;
20482;SDS011;10400;53.198;6.592;2022-10-31T14:53:48;16.30;;;6.53;;
20482;SDS011;10400;53.198;6.592;2022-10-31T14:56:39;14.85;;;5.75;;
20482;SDS011;10400;53.198;6.592;2022-10-31T14:59:09;12.82;;;5.10;;
20482;SDS011;10400;53.198;6.592;2022-10-31T15:01:39;18.20;;;6.10;;
20482;SDS011;10400;53.198;6.592;2022-10-31T15:04:22;13.63;;;6.05;;
20482;SDS011;10400;53.198;6.592;2022-10-31T15:06:49;12.07;;;6.20;;
20482;SDS011;10400;53.198;6.592;2022-10-31T15:09:39;17.08;;;6.88;;
20482;SDS011;10400;53.198;6.592;2022-10-31T15:12:21;14.88;;;6.45;;
20482;SDS011;10400;53.198;6.592;2022-10-31T15:14:49;15.93;;;7.10;;
20482;SDS011;10400;53.198;6.592;2022-10-31T15:17:15;20.00;;;6.68;;
20482;SDS011;10400;53.198;6.592;2022-10-31T15:19:41;13.05;;;6.50;;
20482;SDS011;10400;53.198;6.592;2022-10-31T15:22:09;16.58;;;6.70;;
20482;SDS011;10400;53.198;6.592;2022-10-31T15:24:45;13.15;;;5.88;;
20482;SDS011;10400;53.198;6.592;2022-10-31T15:27:13;12.40;;;5.70;;
20482;SDS011;10400;53.198;6.592;2022-10-31T15:29:48;17.02;;;6.38;;
20482;SDS011;10400;53.198;6.592;2022-10-31T15:34:48;16.80;;;6.68;;
20482;SDS011;10400;53.198;6.592;2022-10-31T15:37:16;15.18;;;6.82;;
20482;SDS011;10400;53.198;6.592;2022-10-31T15:39:44;14.65;;;6.68;;
20482;SDS011;10400;53.198;6.592;2022-10-31T15:42:24;14.52;;;7.25;;
20482;SDS011;10400;53.198;6.592;2022-10-31T15:47:49;16.45;;;7.43;;
20482;SDS011;10400;53.198;6.592;2022-10-31T15:50:40;15.23;;;7.75;;
20482;SDS011;10400;53.198;6.592;2022-10-31T15:53:10;21.10;;;8.57;;
20482;SDS011;10400;53.198;6.592;2022-10-31T15:55:57;17.40;;;8.45;;
20482;SDS011;10400;53.198;6.592;2022-10-31T15:58:25;20.25;;;9.48;;
20482;SDS011;10400;53.198;6.592;2022-10-31T16:01:05;18.40;;;9.02;;
20482;SDS011;10400;53.198;6.592;2022-10-31T16:03:43;14.85;;;8.20;;
20482;SDS011;10400;53.198;6.592;2022-10-31T16:06:19;22.65;;;9.38;;
20482;SDS011;10400;53.198;6.592;2022-10-31T16:08:46;20.65;;;9.52;;
20482;SDS011;10400;53.198;6.592;2022-10-31T16:13:58;21.13;;;9.98;;
20482;SDS011;10400;53.198;6.592;2022-10-31T16:16:51;17.38;;;9.18;;
20482;SDS011;10400;53.198;6.592;2022-10-31T16:19:20;18.30;;;10.18;;
20482;SDS011;10400;53.198;6.592;2022-10-31T16:22:02;19.20;;;9.43;;
20482;SDS011;10400;53.198;6.592;2022-10-31T16:24:37;16.02;;;10.35;;
20482;SDS011;10400;53.198;6.592;2022-10-31T16:27:23;18.70;;;10.35;;
20482;SDS011;10400;53.198;6.592;2022-10-31T16:29:53;15.65;;;9.30;;
20482;SDS011;10400;53.198;6.592;2022-10-31T16:32:34;20.10;;;9.45;;
20482;SDS011;10400;53.198;6.592;2022-10-31T16:35:24;16.13;;;8.60;;
20482;SDS011;10400;53.198;6.592;2022-10-31T16:37:51;20.23;;;9.43;;
20482;SDS011;10400;53.198;6.592;2022-10-31T16:40:17;16.92;;;9.02;;
20482;SDS011;10400;53.198;6.592;2022-10-31T16:42:44;15.80;;;8.50;;
20482;SDS011;10400;53.198;6.592;2022-10-31T16:45:15;17.45;;;9.05;;
20482;SDS011;10400;53.198;6.592;2022-10-31T16:47:45;16.48;;;8.35;;
20482;SDS011;10400;53.198;6.592;2022-10-31T16:50:12;20.67;;;8.50;;
20482;SDS011;10400;53.198;6.592;2022-10-31T16:52:39;15.40;;;8.15;;
20482;SDS011;10400;53.198;6.592;2022-10-31T16:55:09;18.55;;;8.50;;
20482;SDS011;10400;53.198;6.592;2022-10-31T16:57:36;13.23;;;9.35;;
20482;SDS011;10400;53.198;6.592;2022-10-31T17:00:02;18.30;;;11.57;;
20482;SDS011;10400;53.198;6.592;2022-10-31T17:02:28;18.55;;;11.50;;
20482;SDS011;10400;53.198;6.592;2022-10-31T17:04:54;16.58;;;9.15;;
20482;SDS011;10400;53.198;6.592;2022-10-31T17:07:20;17.80;;;7.90;;